SPHI/CIX METAR and TAF weather

Enter ICAO airport designator
Station Type Date Time Source
SPHI METAR 2020/12/06 00:00 UTC NOAA

SPHI 060000Z 18016KT CAVOK 20/16 Q1014 RMK BIRD HAZARD RWY 19/01 PP000


Station Type Date Time Source
SPHI Decoded METAR 2020/12/06 00:00 UTC NOAA

Chiclayo, Peru (SPHI) 06-47S 079-50W 34M
Dec 05, 2020 - 07:00 PM EST / 2020.12.06 0000 UTC
Wind: from the S (180 degrees) at 18 MPH (16 KT):0
Visibility: greater than 7 mile(s):0
Temperature: 68 F (20 C)
Dew Point: 60 F (16 C)
Relative Humidity: 77%
Pressure (altimeter): 29.94 in. Hg (1014 hPa)
ob: SPHI 060000Z 18016KT CAVOK 20/16 Q1014 RMK BIRD HAZARD RWY 19/01 PP000
cycle: 0

Station Type Date Time Source
SPHI TAF 2020/12/06 00:00 UTC NOAA

TAF SPHI 052300Z 0600/0624 19015KT 9999 SCT100 TX26/0619Z TN17/0611Z
FM061000 18010KT CAVOK

Example: see airport list